createdAt,value
2023-09-27T00:09:54.570Z,168468.84
2023-09-27T00:19:58.990Z,168455.53
2023-09-27T00:30:02.055Z,168452.91
2023-09-27T00:40:11.420Z,168475.47
2023-09-27T00:50:14.824Z,168459.53
2023-09-27T01:00:19.552Z,168439.63
2023-09-27T01:10:22.677Z,168405.06
2023-09-27T01:20:29.207Z,168355.88
2023-09-27T01:30:34.377Z,168328.00
2023-09-27T01:40:41.187Z,168341.28
2023-09-27T01:50:45.746Z,168391.78
2023-09-27T02:00:48.516Z,168330.66
2023-09-27T02:10:53.403Z,168277.44
2023-09-27T02:20:56.377Z,168234.94
2023-09-27T02:31:00.777Z,168212.41
2023-09-27T02:41:04.232Z,168172.53
2023-09-27T02:51:08.560Z,168128.72
2023-09-27T03:01:12.486Z,168107.47
2023-09-27T03:11:17.000Z,168084.88
2023-09-27T03:21:20.025Z,168067.63
2023-09-27T03:31:24.458Z,168051.69
2023-09-27T03:41:27.667Z,168034.44
2023-09-27T03:51:32.069Z,168006.59
2023-09-27T04:01:35.066Z,168005.25
2023-09-27T04:11:40.369Z,167998.59
2023-09-27T04:21:43.422Z,167961.38
2023-09-27T04:31:47.918Z,167974.66
2023-09-27T04:41:50.961Z,167946.81
2023-09-27T04:51:55.384Z,167932.19
2023-09-27T05:01:58.411Z,167930.84
2023-09-27T05:12:02.788Z,167921.53
2023-09-27T05:22:05.920Z,167934.81
2023-09-27T05:32:10.686Z,167958.75
2023-09-27T05:42:13.786Z,167966.69
2023-09-27T05:52:18.413Z,167966.69
2023-09-27T06:02:21.721Z,167964.00
2023-09-27T06:12:26.404Z,167964.00
2023-09-27T06:22:29.147Z,168033.09
2023-09-27T06:32:34.544Z,168163.22
2023-09-27T06:42:39.487Z,168317.34
2023-09-27T06:52:44.140Z,168459.53
2023-09-27T07:02:48.958Z,168556.53
2023-09-27T07:12:53.633Z,168607.06
2023-09-27T07:22:57.778Z,168641.69
2023-09-27T07:33:19.177Z,168652.31
2023-09-27T07:43:24.857Z,168666.94
2023-09-27T07:53:38.624Z,168718.81
2023-09-27T08:03:48.013Z,168823.84
2023-09-27T08:13:52.966Z,168934.31
2023-09-27T08:23:56.548Z,169046.06
2023-09-27T08:34:01.182Z,169157.91
2023-09-27T08:44:04.794Z,169288.34
2023-09-27T08:54:16.762Z,169413.56
2023-09-27T09:04:24.083Z,169582.72
2023-09-27T09:14:44.203Z,169735.97
2023-09-27T09:24:48.370Z,169874.66
2023-09-27T09:35:03.675Z,169878.66
2023-09-27T09:45:13.332Z,169941.28
2023-09-27T09:55:36.973Z,170031.94
2023-09-27T10:05:55.193Z,170132.03
2023-09-27T10:16:02.013Z,170185.41
2023-09-27T10:26:20.653Z,170297.44
2023-09-27T10:36:32.224Z,170334.84
2023-09-27T10:46:41.676Z,170472.28
2023-09-27T10:56:46.421Z,170488.34
2023-09-27T11:06:49.771Z,170519.03
2023-09-27T11:16:53.943Z,170593.81
2023-09-27T11:27:00.723Z,170503.03
2023-09-27T11:37:08.038Z,170511.03
2023-09-27T11:47:17.793Z,170494.97
2023-09-27T11:57:23.073Z,170607.16
2023-09-27T12:07:33.507Z,170664.59
2023-09-27T12:17:44.299Z,170672.59
2023-09-27T12:27:49.754Z,170827.53
2023-09-27T12:38:00.702Z,170938.44
2023-09-27T12:48:06.232Z,170951.78
2023-09-27T12:58:14.106Z,171081.44
2023-09-27T13:08:23.327Z,171229.78
2023-09-27T13:18:30.815Z,171304.66
2023-09-27T13:28:39.782Z,171306.00
2023-09-27T13:38:48.118Z,171150.94
2023-09-27T13:48:57.523Z,171158.94
2023-09-27T13:59:05.682Z,171094.81
2023-09-27T14:09:12.679Z,171117.53
2023-09-27T14:19:26.715Z,171084.09
2023-09-27T14:29:35.429Z,171126.91
2023-09-27T14:39:40.597Z,171211.06
2023-09-27T14:49:46.628Z,171260.59
2023-09-27T14:59:59.629Z,171248.47
2023-09-27T15:10:02.428Z,171225.78
2023-09-27T15:20:13.163Z,171219.06
2023-09-27T15:30:18.138Z,171134.91
2023-09-27T15:40:31.570Z,171073.38
2023-09-27T15:50:34.623Z,170963.81
2023-09-27T16:00:46.901Z,170909.06
2023-09-27T16:10:55.182Z,170835.53
2023-09-27T16:21:03.125Z,170819.53
2023-09-27T16:31:10.998Z,170811.53
2023-09-27T16:41:21.654Z,170752.72
2023-09-27T16:51:24.671Z,170643.22
2023-09-27T17:01:38.152Z,170589.81
2023-09-27T17:11:40.920Z,170489.63
2023-09-27T17:21:45.271Z,170454.94
2023-09-27T17:31:49.849Z,170380.25
2023-09-27T17:41:54.354Z,170352.19
2023-09-27T17:51:57.513Z,170322.84
2023-09-27T18:02:02.000Z,170312.16
2023-09-27T18:12:07.670Z,170274.75
2023-09-27T18:22:12.056Z,170220.06
2023-09-27T18:32:16.029Z,170196.03
2023-09-27T18:42:20.609Z,170134.72
2023-09-27T18:52:23.993Z,170113.38
2023-09-27T19:02:28.596Z,170083.94
2023-09-27T19:12:31.676Z,170037.28
2023-09-27T19:22:36.067Z,170050.63
2023-09-27T19:32:39.103Z,170015.97
2023-09-27T19:42:43.769Z,170030.66
2023-09-27T19:52:48.803Z,169998.63
2023-09-27T20:02:54.337Z,169974.66
2023-09-27T20:12:57.387Z,169987.97
2023-09-27T20:23:01.811Z,169990.63
2023-09-27T20:33:05.946Z,169984.00
2023-09-27T20:43:10.603Z,169985.28
2023-09-27T20:53:13.702Z,170007.97
2023-09-27T21:03:18.220Z,170002.63
2023-09-27T21:13:21.327Z,170007.97
2023-09-27T21:23:25.616Z,169998.63
2023-09-27T21:33:28.604Z,170010.59
2023-09-27T21:43:33.953Z,170009.31
2023-09-27T21:53:37.082Z,170007.97
2023-09-27T22:03:42.081Z,169994.63
2023-09-27T22:13:45.203Z,169962.66
2023-09-27T22:23:49.534Z,169938.63
2023-09-27T22:33:52.815Z,169917.31
2023-09-27T22:43:57.427Z,169861.25
2023-09-27T22:54:01.812Z,169815.97
2023-09-27T23:04:10.832Z,169781.31
2023-09-27T23:14:22.597Z,169730.63
2023-09-27T23:24:44.039Z,169708.03
2023-09-27T23:34:49.544Z,169700.03
2023-09-27T23:44:55.985Z,169713.31
2023-09-27T23:55:03.737Z,169712.00
